createdAt,value
2022-09-03T00:02:37.016Z,20.50
2022-09-03T00:05:11.054Z,20.70
2022-09-03T00:07:55.692Z,20.50
2022-09-03T00:10:32.851Z,20.40
2022-09-03T00:13:03.985Z,20.40
2022-09-03T00:15:33.613Z,20.10
2022-09-03T00:18:16.557Z,20.20
2022-09-03T00:21:08.351Z,20.20
2022-09-03T00:23:44.772Z,20.10
2022-09-03T00:26:11.567Z,20.20
2022-09-03T00:28:55.733Z,20.10
2022-09-03T00:31:36.885Z,20.20
2022-09-03T00:34:27.186Z,20.20
2022-09-03T00:36:54.239Z,20.20
2022-09-03T00:39:24.711Z,20.30
2022-09-03T00:42:25.819Z,20.40
2022-09-03T00:45:15.495Z,20.10
2022-09-03T00:48:12.467Z,20.00
2022-09-03T00:51:10.161Z,19.80
2022-09-03T00:53:47.968Z,19.80
2022-09-03T00:56:32.891Z,19.70
2022-09-03T00:59:08.443Z,19.60
2022-09-03T01:01:52.904Z,19.60
2022-09-03T01:04:22.319Z,19.70
2022-09-03T01:07:18.547Z,19.80
2022-09-03T01:10:19.364Z,19.80
2022-09-03T01:12:48.964Z,20.00
2022-09-03T01:15:40.193Z,19.80
2022-09-03T01:18:25.908Z,19.70
2022-09-03T01:21:02.274Z,19.60
2022-09-03T01:23:56.975Z,19.60
2022-09-03T01:26:35.787Z,19.60
2022-09-03T01:29:35.568Z,19.80
2022-09-03T01:32:17.014Z,19.80
2022-09-03T01:35:02.498Z,19.80
2022-09-03T01:37:47.196Z,19.70
2022-09-03T01:40:29.245Z,19.80
2022-09-03T01:42:56.338Z,19.90
2022-09-03T01:45:51.400Z,19.90
2022-09-03T01:48:41.052Z,19.90
2022-09-03T01:51:17.997Z,19.80
2022-09-03T01:54:29.015Z,19.70
2022-09-03T01:57:12.806Z,19.70
2022-09-03T02:00:20.605Z,19.80
2022-09-03T02:02:51.516Z,19.70
2022-09-03T02:05:24.907Z,19.80
2022-09-03T02:07:54.923Z,19.90
2022-09-03T02:10:53.542Z,19.90
2022-09-03T02:13:31.777Z,19.80
2022-09-03T02:16:03.730Z,19.80
2022-09-03T02:18:36.929Z,19.90
2022-09-03T02:21:05.305Z,19.80
2022-09-03T02:23:32.554Z,19.80
2022-09-03T02:26:01.824Z,19.70
2022-09-03T02:28:31.144Z,19.70
2022-09-03T02:30:58.509Z,19.70
2022-09-03T02:33:25.481Z,19.70
2022-09-03T02:35:53.337Z,19.80
2022-09-03T02:38:25.888Z,19.80
2022-09-03T02:40:56.479Z,19.90
2022-09-03T02:43:41.188Z,19.90
2022-09-03T02:46:18.548Z,20.00
2022-09-03T02:48:45.394Z,19.80
2022-09-03T02:51:14.125Z,19.80
2022-09-03T02:53:41.953Z,19.80
2022-09-03T02:56:09.169Z,19.80
2022-09-03T02:58:36.162Z,19.90
2022-09-03T03:01:04.194Z,19.80
2022-09-03T03:03:31.547Z,19.80
2022-09-03T03:06:02.023Z,19.70
2022-09-03T03:08:30.412Z,19.80
2022-09-03T03:10:58.957Z,19.80
2022-09-03T03:13:27.592Z,19.80
2022-09-03T03:15:59.218Z,19.80
2022-09-03T03:18:26.429Z,19.80
2022-09-03T03:20:54.965Z,19.90
2022-09-03T03:23:22.294Z,19.90
2022-09-03T03:25:49.444Z,19.80
2022-09-03T03:28:18.077Z,19.90
2022-09-03T03:30:47.632Z,19.80
2022-09-03T03:33:14.896Z,19.90
2022-09-03T03:35:45.094Z,19.90
2022-09-03T03:38:12.112Z,19.90
2022-09-03T03:40:39.872Z,19.80
2022-09-03T03:43:06.905Z,19.80
2022-09-03T03:45:34.179Z,19.80
2022-09-03T03:48:01.096Z,19.90
2022-09-03T03:50:28.116Z,19.80
2022-09-03T03:52:55.039Z,19.70
2022-09-03T03:55:22.987Z,19.60
2022-09-03T03:57:54.268Z,19.60
2022-09-03T04:00:21.228Z,19.60
2022-09-03T04:02:51.637Z,19.60
2022-09-03T04:05:18.600Z,19.60
2022-09-03T04:07:49.920Z,19.60
2022-09-03T04:10:16.816Z,19.50
2022-09-03T04:12:43.679Z,19.50
2022-09-03T04:15:10.822Z,19.50
2022-09-03T04:17:37.931Z,19.50
2022-09-03T04:20:05.755Z,19.50
2022-09-03T04:22:32.639Z,19.40
2022-09-03T04:24:59.529Z,19.40
2022-09-03T04:27:26.470Z,19.40
2022-09-03T04:29:53.459Z,19.40
2022-09-03T04:32:38.942Z,19.30
2022-09-03T04:35:06.274Z,19.30
2022-09-03T04:37:33.584Z,19.40
2022-09-03T04:40:00.531Z,19.40
2022-09-03T04:42:28.108Z,19.40
2022-09-03T04:44:54.910Z,19.40
2022-09-03T04:47:21.743Z,19.30
2022-09-03T04:49:48.657Z,19.20
2022-09-03T04:52:15.669Z,19.20
2022-09-03T04:54:42.550Z,19.20
2022-09-03T04:57:10.523Z,19.20
2022-09-03T04:59:37.405Z,19.20
2022-09-03T05:02:04.280Z,19.30
2022-09-03T05:04:31.215Z,19.30
2022-09-03T05:06:58.117Z,19.20
2022-09-03T05:09:24.966Z,19.20
2022-09-03T05:11:52.037Z,19.10
2022-09-03T05:14:18.998Z,19.10
2022-09-03T05:16:53.017Z,19.10
2022-09-03T05:19:20.229Z,19.10
2022-09-03T05:21:47.176Z,19.10
2022-09-03T05:24:15.174Z,19.10
2022-09-03T05:26:42.248Z,19.10
2022-09-03T05:29:09.219Z,19.00
2022-09-03T05:31:39.826Z,18.90
2022-09-03T05:34:07.581Z,19.00
2022-09-03T05:36:36.935Z,19.00
2022-09-03T05:39:05.744Z,19.10
2022-09-03T05:41:34.331Z,19.10
2022-09-03T05:44:01.864Z,19.00
2022-09-03T05:46:34.198Z,19.00
2022-09-03T05:49:02.600Z,19.20
2022-09-03T05:51:30.707Z,19.20
2022-09-03T05:53:58.770Z,19.30
2022-09-03T05:56:28.316Z,19.40
2022-09-03T05:58:58.718Z,19.50
2022-09-03T06:01:29.049Z,19.50
2022-09-03T06:04:04.610Z,19.50
2022-09-03T06:06:33.877Z,19.40
2022-09-03T06:09:04.282Z,19.40
2022-09-03T06:11:33.033Z,19.40
2022-09-03T06:14:01.845Z,19.40
2022-09-03T06:16:30.629Z,19.50
2022-09-03T06:19:02.051Z,19.50
2022-09-03T06:21:29.478Z,19.60
2022-09-03T06:23:58.439Z,19.60
2022-09-03T06:26:30.838Z,19.60
2022-09-03T06:28:58.418Z,19.70
2022-09-03T06:31:26.175Z,19.80
2022-09-03T06:33:54.732Z,19.70
2022-09-03T06:36:23.844Z,19.60
2022-09-03T06:38:55.634Z,19.70
2022-09-03T06:41:28.101Z,19.70
2022-09-03T06:44:03.675Z,19.80
2022-09-03T06:46:35.787Z,19.80
2022-09-03T06:49:02.710Z,19.70
2022-09-03T06:51:31.449Z,19.80
2022-09-03T06:54:06.419Z,19.90
2022-09-03T06:56:39.072Z,19.90
2022-09-03T06:59:14.886Z,20.00
2022-09-03T07:01:45.619Z,20.10
2022-09-03T07:04:16.848Z,20.10
2022-09-03T07:06:46.594Z,20.10
2022-09-03T07:09:15.701Z,20.10
2022-09-03T07:11:48.031Z,20.30
2022-09-03T07:14:17.609Z,20.30
2022-09-03T07:16:46.159Z,20.40
2022-09-03T07:19:13.804Z,20.20
2022-09-03T07:21:46.514Z,20.40
2022-09-03T07:24:16.433Z,20.50
2022-09-03T07:26:47.186Z,20.40
2022-09-03T07:29:16.904Z,20.50
2022-09-03T07:31:44.303Z,20.60
2022-09-03T07:34:13.680Z,20.60
2022-09-03T07:36:51.156Z,21.00
2022-09-03T07:39:19.268Z,21.00
2022-09-03T07:41:47.182Z,20.80
2022-09-03T07:44:16.280Z,20.90
2022-09-03T07:46:45.650Z,20.90
2022-09-03T07:49:13.013Z,20.90
2022-09-03T07:51:40.531Z,20.90
2022-09-03T07:54:11.986Z,20.70
2022-09-03T07:56:41.209Z,21.00
2022-09-03T07:59:12.090Z,21.10
2022-09-03T08:01:41.194Z,21.30
2022-09-03T08:04:10.004Z,21.30
2022-09-03T08:06:38.353Z,21.40
2022-09-03T08:09:07.758Z,21.50
2022-09-03T08:11:38.049Z,21.70
2022-09-03T08:14:11.055Z,21.70
2022-09-03T08:16:44.253Z,21.80
2022-09-03T08:19:12.073Z,22.00
2022-09-03T08:21:42.168Z,22.00
2022-09-03T08:24:11.202Z,22.00
2022-09-03T08:26:42.469Z,22.00
2022-09-03T08:29:10.558Z,22.10
2022-09-03T08:31:38.438Z,22.20
2022-09-03T08:34:07.343Z,22.20
2022-09-03T08:36:39.201Z,22.20
2022-09-03T08:39:10.230Z,22.40
2022-09-03T08:41:37.758Z,22.10
2022-09-03T08:44:13.899Z,22.10
2022-09-03T08:47:08.524Z,22.10
2022-09-03T08:49:46.488Z,22.10
2022-09-03T08:52:32.628Z,22.30
2022-09-03T08:55:16.271Z,22.50
2022-09-03T08:57:53.061Z,22.70
2022-09-03T09:00:20.684Z,22.80
2022-09-03T09:03:07.210Z,22.80
2022-09-03T09:05:52.012Z,23.00
2022-09-03T09:08:39.097Z,22.90
2022-09-03T09:11:28.430Z,23.10
2022-09-03T09:14:11.816Z,23.10
2022-09-03T09:16:46.063Z,23.20
2022-09-03T09:19:21.903Z,22.80
2022-09-03T09:21:59.150Z,22.80
2022-09-03T09:24:28.624Z,22.70
2022-09-03T09:27:05.447Z,22.70
2022-09-03T09:29:38.155Z,22.80
2022-09-03T09:32:09.102Z,22.80
2022-09-03T09:34:37.599Z,22.90
2022-09-03T09:37:15.656Z,23.00
2022-09-03T09:39:55.369Z,23.10
2022-09-03T09:42:23.805Z,23.00
2022-09-03T09:44:51.431Z,23.20
2022-09-03T09:47:28.895Z,23.50
2022-09-03T09:50:00.081Z,23.30
2022-09-03T09:52:31.308Z,23.30
2022-09-03T09:55:11.129Z,23.30
2022-09-03T09:57:39.790Z,23.40
2022-09-03T10:00:12.965Z,23.60
2022-09-03T10:02:47.283Z,23.80
2022-09-03T10:05:15.063Z,23.70
2022-09-03T10:07:42.284Z,24.00
2022-09-03T10:10:21.397Z,24.10
2022-09-03T10:13:13.003Z,24.00
2022-09-03T10:16:03.133Z,24.20
2022-09-03T10:18:39.537Z,24.60
2022-09-03T10:21:23.304Z,24.70
2022-09-03T10:24:19.827Z,24.70
2022-09-03T10:26:47.075Z,24.70
2022-09-03T10:29:23.293Z,25.00
2022-09-03T10:32:40.454Z,25.10
2022-09-03T10:35:14.093Z,25.20
2022-09-03T10:37:41.079Z,25.30
2022-09-03T10:40:31.997Z,25.30
2022-09-03T10:43:24.144Z,25.50
2022-09-03T10:46:18.376Z,25.50
2022-09-03T10:49:15.059Z,25.60
2022-09-03T10:51:49.533Z,26.00
2022-09-03T10:54:59.376Z,26.10
2022-09-03T10:57:57.241Z,26.30
2022-09-03T11:00:26.241Z,26.40
2022-09-03T11:03:02.206Z,26.30
2022-09-03T11:05:42.965Z,26.00
2022-09-03T11:08:17.674Z,25.90
2022-09-03T11:10:57.520Z,26.40
2022-09-03T11:13:31.673Z,26.40
2022-09-03T11:16:20.244Z,26.40
2022-09-03T11:18:52.956Z,26.10
2022-09-03T11:21:27.171Z,26.00
2022-09-03T11:24:09.798Z,26.30
2022-09-03T11:26:37.969Z,26.70
2022-09-03T11:29:18.293Z,26.80
2022-09-03T11:32:02.800Z,27.20
2022-09-03T11:34:45.041Z,27.30
2022-09-03T11:37:23.637Z,27.60
2022-09-03T11:40:20.200Z,27.70
2022-09-03T11:42:47.758Z,27.80
2022-09-03T11:45:20.675Z,28.10
2022-09-03T11:47:48.350Z,28.20
2022-09-03T11:50:21.781Z,28.30
2022-09-03T11:52:52.007Z,28.10
2022-09-03T11:55:43.269Z,27.90
2022-09-03T11:58:24.748Z,28.10
2022-09-03T12:00:54.177Z,28.10
2022-09-03T12:03:28.640Z,28.80
2022-09-03T12:06:34.372Z,28.60
2022-09-03T12:09:25.552Z,28.60
2022-09-03T12:11:58.838Z,28.90
2022-09-03T12:14:52.468Z,29.10
2022-09-03T12:17:37.473Z,29.40
2022-09-03T12:20:15.941Z,29.90
2022-09-03T12:22:43.485Z,30.20
2022-09-03T12:25:15.242Z,30.20
2022-09-03T12:27:47.020Z,29.70
2022-09-03T12:30:19.879Z,29.60
2022-09-03T12:32:47.708Z,30.00
2022-09-03T12:38:08.068Z,30.30
2022-09-03T12:41:21.242Z,30.70
2022-09-03T12:43:49.060Z,30.20
2022-09-03T12:46:16.341Z,30.30
2022-09-03T12:51:55.481Z,30.10
2022-09-03T12:54:25.478Z,30.10
2022-09-03T12:56:59.005Z,30.20
2022-09-03T12:59:29.437Z,30.20
2022-09-03T13:02:02.641Z,29.90
2022-09-03T13:04:36.064Z,28.50
2022-09-03T13:07:08.517Z,28.50
2022-09-03T13:09:40.511Z,28.80
2022-09-03T13:12:19.491Z,29.00
2022-09-03T13:14:56.298Z,29.20
2022-09-03T13:17:51.068Z,29.30
2022-09-03T13:20:29.964Z,29.60
2022-09-03T13:23:02.051Z,29.70
2022-09-03T13:26:06.428Z,29.60
2022-09-03T13:28:39.878Z,29.70
2022-09-03T13:31:38.916Z,29.90
2022-09-03T13:34:12.257Z,30.00
2022-09-03T13:36:58.588Z,30.10
2022-09-03T13:39:35.737Z,29.40
2022-09-03T13:42:08.132Z,28.80
2022-09-03T13:44:44.642Z,28.40
2022-09-03T13:47:26.603Z,28.00
2022-09-03T13:50:23.167Z,28.00
2022-09-03T13:53:04.433Z,27.60
2022-09-03T13:55:48.257Z,27.60
2022-09-03T13:58:29.150Z,27.30
2022-09-03T14:00:59.113Z,27.80
2022-09-03T14:03:49.096Z,27.30
2022-09-03T14:06:34.793Z,27.30
2022-09-03T14:09:59.976Z,26.90
2022-09-03T14:12:47.307Z,27.50
2022-09-03T14:15:35.236Z,27.20
2022-09-03T14:18:40.514Z,27.20
2022-09-03T14:21:16.200Z,27.20
2022-09-03T14:24:24.544Z,27.10
2022-09-03T14:26:57.674Z,26.90
2022-09-03T14:29:33.507Z,26.90
2022-09-03T14:32:37.827Z,27.10
2022-09-03T14:35:17.628Z,26.50
2022-09-03T14:37:47.484Z,26.20
2022-09-03T14:40:41.833Z,26.20
2022-09-03T14:43:24.143Z,26.40
2022-09-03T14:46:23.246Z,26.50
2022-09-03T14:49:17.536Z,26.80
2022-09-03T14:51:58.480Z,26.90
2022-09-03T14:54:26.065Z,26.90
2022-09-03T14:57:14.518Z,26.90
2022-09-03T15:00:19.964Z,26.90
2022-09-03T15:02:59.270Z,27.10
2022-09-03T15:05:44.885Z,27.20
2022-09-03T15:08:41.664Z,27.50
2022-09-03T15:11:23.009Z,27.90
2022-09-03T15:14:04.704Z,28.10
2022-09-03T15:16:58.249Z,28.10
2022-09-03T15:19:46.348Z,28.40
2022-09-03T15:22:34.918Z,28.80
2022-09-03T15:25:17.197Z,28.90
2022-09-03T15:28:23.968Z,29.30
2022-09-03T15:31:09.795Z,29.60
2022-09-03T15:33:51.886Z,30.00
2022-09-03T15:36:25.875Z,29.80
2022-09-03T15:39:07.019Z,29.80
2022-09-03T15:42:10.382Z,29.50
2022-09-03T15:44:50.199Z,29.00
2022-09-03T15:47:54.129Z,28.80
2022-09-03T15:50:40.309Z,28.70
2022-09-03T15:53:26.789Z,28.50
2022-09-03T15:56:15.046Z,28.30
2022-09-03T15:59:02.145Z,28.20
2022-09-03T16:01:37.304Z,28.20
2022-09-03T16:04:16.825Z,28.10
2022-09-03T16:07:06.724Z,27.80
2022-09-03T16:10:24.191Z,27.60
2022-09-03T16:13:17.351Z,27.80
2022-09-03T16:16:05.702Z,27.60
2022-09-03T16:19:01.624Z,27.50
2022-09-03T16:22:11.886Z,27.70
2022-09-03T16:25:07.385Z,27.90
2022-09-03T16:27:46.775Z,27.60
2022-09-03T16:30:28.062Z,27.60
2022-09-03T16:32:57.997Z,27.50
2022-09-03T16:35:54.010Z,27.20
2022-09-03T16:38:38.648Z,27.40
2022-09-03T16:41:25.874Z,27.40
2022-09-03T16:44:03.199Z,27.50
2022-09-03T16:46:58.494Z,27.30
2022-09-03T16:49:47.246Z,27.20
2022-09-03T16:52:18.822Z,27.20
2022-09-03T16:55:03.234Z,27.00
2022-09-03T16:57:46.644Z,27.10
2022-09-03T17:00:16.386Z,27.00
2022-09-03T17:03:26.555Z,26.90
2022-09-03T17:06:24.117Z,26.90
2022-09-03T17:09:19.822Z,26.90
2022-09-03T17:12:18.714Z,26.70
2022-09-03T17:15:30.269Z,26.60
2022-09-03T17:18:33.905Z,26.40
2022-09-03T17:21:12.782Z,26.20
2022-09-03T17:23:59.669Z,26.20
2022-09-03T17:26:41.505Z,26.20
2022-09-03T17:29:41.800Z,26.30
2022-09-03T17:32:28.451Z,26.10
2022-09-03T17:35:02.969Z,26.20
2022-09-03T17:38:12.277Z,26.20
2022-09-03T17:41:17.227Z,26.30
2022-09-03T17:43:56.387Z,26.20
2022-09-03T17:46:43.836Z,26.20
2022-09-03T17:49:22.712Z,25.90
2022-09-03T17:52:21.821Z,26.00
2022-09-03T17:54:52.747Z,26.00
2022-09-03T17:57:32.233Z,25.60
2022-09-03T18:00:08.447Z,25.50
2022-09-03T18:02:54.157Z,25.40
2022-09-03T18:05:26.673Z,25.20
2022-09-03T18:08:07.248Z,25.10
2022-09-03T18:11:16.765Z,25.10
2022-09-03T18:14:02.743Z,24.90
2022-09-03T18:16:35.459Z,25.00
2022-09-03T18:19:08.687Z,25.10
2022-09-03T18:21:59.764Z,25.00
2022-09-03T18:25:00.216Z,24.90
2022-09-03T18:28:12.587Z,24.90
2022-09-03T18:30:58.195Z,24.90
2022-09-03T18:33:44.947Z,25.10
2022-09-03T18:36:32.147Z,25.20
2022-09-03T18:39:30.248Z,25.10
2022-09-03T18:42:29.819Z,25.00
2022-09-03T18:45:48.829Z,25.00
2022-09-03T18:48:39.009Z,24.90
2022-09-03T18:51:44.599Z,25.00
2022-09-03T18:54:50.629Z,24.80
2022-09-03T18:57:47.508Z,24.80
2022-09-03T19:00:34.595Z,24.80
2022-09-03T19:03:32.341Z,24.70
2022-09-03T19:06:35.968Z,24.80
2022-09-03T19:09:33.692Z,24.60
2022-09-03T19:12:59.094Z,24.90
2022-09-03T19:15:56.197Z,24.90
2022-09-03T19:19:00.665Z,24.70
2022-09-03T19:22:21.288Z,24.80
2022-09-03T19:25:13.462Z,24.60
2022-09-03T19:28:05.193Z,24.30
2022-09-03T19:31:13.676Z,24.30
2022-09-03T19:34:25.100Z,24.30
2022-09-03T19:37:34.578Z,24.30
2022-09-03T19:40:23.391Z,24.30
2022-09-03T19:43:47.061Z,24.30
2022-09-03T19:46:55.897Z,24.30
2022-09-03T19:50:14.007Z,24.20
2022-09-03T19:53:01.122Z,24.20
2022-09-03T19:55:53.193Z,24.10
2022-09-03T19:58:44.087Z,24.00
2022-09-03T20:01:31.465Z,24.00
2022-09-03T20:04:34.762Z,24.00
2022-09-03T20:07:25.274Z,24.00
2022-09-03T20:10:13.170Z,24.00
2022-09-03T20:12:47.949Z,24.00
2022-09-03T20:15:15.541Z,23.90
2022-09-03T20:17:57.435Z,23.90
2022-09-03T20:20:29.231Z,23.80
2022-09-03T20:23:16.425Z,23.70
2022-09-03T20:25:52.152Z,23.70
2022-09-03T20:28:30.955Z,23.70
2022-09-03T20:31:11.795Z,23.70
2022-09-03T20:33:45.042Z,23.70
2022-09-03T20:36:29.473Z,23.80
2022-09-03T20:39:14.122Z,23.60
2022-09-03T20:41:57.892Z,23.60
2022-09-03T20:44:43.405Z,23.50
2022-09-03T20:47:39.751Z,23.50
2022-09-03T20:50:33.994Z,23.50
2022-09-03T20:53:43.584Z,23.50
2022-09-03T20:56:26.876Z,23.50
2022-09-03T20:59:13.974Z,23.50
2022-09-03T21:02:20.930Z,23.40
2022-09-03T21:05:15.603Z,23.50
2022-09-03T21:07:50.680Z,23.50
2022-09-03T21:10:38.638Z,23.30
2022-09-03T21:13:14.532Z,23.20
2022-09-03T21:15:54.474Z,23.10
2022-09-03T21:18:50.381Z,23.10
2022-09-03T21:21:24.893Z,23.10
2022-09-03T21:24:31.233Z,23.20
2022-09-03T21:27:13.408Z,23.10
2022-09-03T21:29:58.356Z,23.00
2022-09-03T21:32:54.694Z,23.00
2022-09-03T21:35:32.978Z,22.90
2022-09-03T21:38:19.731Z,23.10
2022-09-03T21:41:02.784Z,23.10
2022-09-03T21:43:48.878Z,23.10
2022-09-03T21:46:41.116Z,23.00
2022-09-03T21:49:11.215Z,23.00
2022-09-03T21:51:48.360Z,22.80
2022-09-03T21:54:33.771Z,22.80
2022-09-03T21:57:30.132Z,22.80
2022-09-03T22:00:09.366Z,22.70
2022-09-03T22:02:36.546Z,22.80
2022-09-03T22:05:04.344Z,22.80
2022-09-03T22:08:12.880Z,22.70
2022-09-03T22:10:39.798Z,22.60
2022-09-03T22:13:33.744Z,22.50
2022-09-03T22:16:30.318Z,22.40
2022-09-03T22:18:58.764Z,22.50
2022-09-03T22:21:28.422Z,22.50
2022-09-03T22:24:23.135Z,22.50
2022-09-03T22:27:04.399Z,22.60
2022-09-03T22:29:56.034Z,22.70
2022-09-03T22:32:42.066Z,22.30
2022-09-03T22:35:36.755Z,22.20
2022-09-03T22:38:28.637Z,22.00
2022-09-03T22:40:58.580Z,22.00
2022-09-03T22:43:42.759Z,21.90
2022-09-03T22:46:19.077Z,21.90
2022-09-03T22:48:57.791Z,21.80
2022-09-03T22:51:26.075Z,21.70
2022-09-03T22:54:19.066Z,21.70
2022-09-03T22:56:46.299Z,21.70
2022-09-03T22:59:20.592Z,21.70
2022-09-03T23:01:59.070Z,21.70
2022-09-03T23:04:55.562Z,21.90
2022-09-03T23:07:33.459Z,21.90
2022-09-03T23:10:11.708Z,21.70
2022-09-03T23:12:50.342Z,21.60
2022-09-03T23:15:30.350Z,21.60
2022-09-03T23:18:11.377Z,21.50
2022-09-03T23:20:43.544Z,21.40
2022-09-03T23:23:19.488Z,21.20
2022-09-03T23:25:53.900Z,21.30
2022-09-03T23:28:33.954Z,21.40
2022-09-03T23:31:30.577Z,21.50
2022-09-03T23:33:57.914Z,21.30
2022-09-03T23:37:32.059Z,21.20
2022-09-03T23:40:28.105Z,21.30
2022-09-03T23:43:31.496Z,21.30
2022-09-03T23:46:23.038Z,21.30
2022-09-03T23:49:17.404Z,21.20
2022-09-03T23:51:44.922Z,21.30
2022-09-03T23:54:39.799Z,21.40
2022-09-03T23:57:36.723Z,21.30
